Beaver, Washington
Current Conditions -  °F | °C
As of 6:18 AM on Thursday 27 Nov 2014 (Local Time) from KUIL Reporting Station
Haze Haze  
Wind Chill: 54°   Ceiling: 300
Heat Index: 54°   Visibility: 3mi
Dew Point: 54°   Wind: 12mph
Humidity: 100%   Direction: 210°SSW
Pressure: 29.78"   Gusts: 18mph
Location:  48.06°N, 124.35°W
Report Text: KUIL 271418Z AUTO 21010G16KT 3SM BR OVC003 12/12 A2978 RMK AO2 T01220122
Loading
Personal Weather Stations






























Interactive Weather Map New forecast layout! Learn more

10-Day Weather Forecast

Advertisements
Track Severe Weather on mobile